createdAt,value
2022-11-09T00:01:44.288Z,62.00
2022-11-09T00:09:08.483Z,62.00
2022-11-09T00:11:37.763Z,62.30
2022-11-09T00:14:04.516Z,62.20
2022-11-09T00:16:31.492Z,62.40
2022-11-09T00:18:58.475Z,62.10
2022-11-09T00:21:27.333Z,62.50
2022-11-09T00:23:54.225Z,62.10
2022-11-09T00:26:22.488Z,61.80
2022-11-09T00:31:18.723Z,62.60
2022-11-09T00:33:52.540Z,62.60
2022-11-09T00:36:21.257Z,62.20
2022-11-09T00:38:48.941Z,59.90
2022-11-09T00:41:15.889Z,62.20
2022-11-09T00:43:42.585Z,61.90
2022-11-09T00:46:11.739Z,62.10
2022-11-09T00:48:39.921Z,61.80
2022-11-09T00:51:07.787Z,61.50
2022-11-09T00:53:34.566Z,61.80
2022-11-09T01:00:58.546Z,61.60
2022-11-09T01:05:52.465Z,61.20
2022-11-09T01:08:19.386Z,61.60
2022-11-09T01:10:54.269Z,61.20
2022-11-09T01:15:53.424Z,61.50
2022-11-09T01:20:50.747Z,61.40
2022-11-09T01:23:18.960Z,61.90
2022-11-09T01:25:50.788Z,61.80
2022-11-09T01:28:19.594Z,61.40
2022-11-09T01:30:47.471Z,61.40
2022-11-09T01:38:11.268Z,61.50
2022-11-09T01:40:41.226Z,61.40
2022-11-09T01:43:19.778Z,61.50
2022-11-09T01:45:54.334Z,61.10
2022-11-09T01:50:56.041Z,61.30
2022-11-09T01:53:27.181Z,61.30
2022-11-09T01:55:56.714Z,61.10
2022-11-09T01:58:26.625Z,61.50
2022-11-09T02:00:56.095Z,59.40
2022-11-09T02:03:37.152Z,61.00
2022-11-09T02:06:08.562Z,61.10
2022-11-09T02:11:11.196Z,60.90
2022-11-09T02:16:17.218Z,61.20
2022-11-09T02:28:18.743Z,60.90
2022-11-09T02:33:12.736Z,61.10
2022-11-09T02:45:32.003Z,61.20
2022-11-09T02:55:21.416Z,60.90
2022-11-09T03:00:16.086Z,59.30
2022-11-09T03:05:12.081Z,60.90
2022-11-09T03:07:41.953Z,60.70
2022-11-09T03:10:09.047Z,61.20
2022-11-09T03:12:37.420Z,60.30
2022-11-09T03:15:08.596Z,60.90
2022-11-09T03:20:05.613Z,61.30
2022-11-09T03:22:32.764Z,61.10
2022-11-09T03:27:27.264Z,60.50
2022-11-09T03:29:54.081Z,60.20
2022-11-09T03:32:21.065Z,61.30
2022-11-09T03:34:49.128Z,61.30
2022-11-09T03:39:43.333Z,60.90
2022-11-09T03:52:00.251Z,61.10
2022-11-09T03:56:54.078Z,59.80
2022-11-09T03:59:20.813Z,61.50
2022-11-09T04:01:48.204Z,59.70
2022-11-09T04:04:15.109Z,61.70
2022-11-09T04:06:41.933Z,61.70
2022-11-09T04:11:35.924Z,62.40
2022-11-09T04:23:51.086Z,61.10
2022-11-09T04:41:01.543Z,61.00
2022-11-09T04:55:44.235Z,61.50
2022-11-09T05:03:05.961Z,62.40
2022-11-09T05:05:33.537Z,62.10
2022-11-09T05:27:55.793Z,60.70
2022-11-09T05:42:41.208Z,59.90
2022-11-09T05:50:22.407Z,60.60
2022-11-09T05:53:01.124Z,60.50
2022-11-09T06:07:43.679Z,60.20
2022-11-09T06:10:10.427Z,58.10
2022-11-09T06:12:37.365Z,59.90
2022-11-09T06:15:04.566Z,60.20
2022-11-09T06:19:58.417Z,60.30
2022-11-09T06:22:25.190Z,60.50
2022-11-09T06:34:40.713Z,60.50
2022-11-09T06:37:07.440Z,60.40
2022-11-09T06:44:29.916Z,55.30
2022-11-09T06:46:56.807Z,55.60
2022-11-09T06:49:23.747Z,56.30
2022-11-09T06:51:50.550Z,56.00
2022-11-09T06:54:17.362Z,56.10
2022-11-09T06:56:44.108Z,56.20
2022-11-09T06:59:10.901Z,56.30
2022-11-09T07:06:32.338Z,56.00
2022-11-09T07:16:25.306Z,56.00
2022-11-09T07:18:52.343Z,56.10
2022-11-09T07:21:19.119Z,56.20
2022-11-09T07:23:47.852Z,56.20
2022-11-09T07:26:15.661Z,56.20
2022-11-09T07:28:42.856Z,57.20
2022-11-09T07:31:10.392Z,56.40
2022-11-09T07:33:37.409Z,57.10
2022-11-09T07:36:05.898Z,57.10
2022-11-09T07:38:32.854Z,56.40
2022-11-09T07:41:00.864Z,57.10
2022-11-09T07:43:29.158Z,57.20
2022-11-09T07:45:57.998Z,57.20
2022-11-09T07:48:24.728Z,57.70
2022-11-09T07:50:51.645Z,57.40
2022-11-09T07:53:18.719Z,58.20
2022-11-09T07:55:45.777Z,58.40
2022-11-09T07:58:15.061Z,58.70
2022-11-09T08:00:43.082Z,58.60
2022-11-09T08:03:10.455Z,58.50
2022-11-09T08:05:37.535Z,57.70
2022-11-09T08:08:07.303Z,58.70
2022-11-09T08:10:35.863Z,57.70
2022-11-09T08:13:05.663Z,57.70
2022-11-09T08:15:33.757Z,58.20
2022-11-09T08:18:02.482Z,57.60
2022-11-09T08:20:30.500Z,58.40
2022-11-09T08:23:02.314Z,59.40
2022-11-09T08:25:31.548Z,57.40
2022-11-09T08:30:26.858Z,57.40
2022-11-09T08:32:53.622Z,57.40
2022-11-09T08:35:23.330Z,57.30
2022-11-09T08:37:52.276Z,57.90
2022-11-09T08:40:22.076Z,57.30
2022-11-09T08:42:48.837Z,57.90
2022-11-09T08:45:16.898Z,58.00
2022-11-09T08:47:44.418Z,57.90
2022-11-09T08:50:12.907Z,59.30
2022-11-09T08:52:40.562Z,57.20
2022-11-09T08:55:07.823Z,58.10
2022-11-09T08:57:34.586Z,57.90
2022-11-09T09:00:01.415Z,57.10
2022-11-09T09:02:28.089Z,57.10
2022-11-09T09:04:54.824Z,57.50
2022-11-09T09:07:21.581Z,58.40
2022-11-09T09:09:48.487Z,59.00
2022-11-09T09:12:15.259Z,57.00
2022-11-09T09:14:42.008Z,57.10
2022-11-09T09:17:08.994Z,57.30
2022-11-09T09:19:36.118Z,57.20
2022-11-09T09:22:02.909Z,57.40
2022-11-09T09:24:29.777Z,57.50
2022-11-09T09:26:56.524Z,57.50
2022-11-09T09:29:23.390Z,58.20
2022-11-09T09:31:50.331Z,58.70
2022-11-09T09:34:17.214Z,59.70
2022-11-09T09:36:48.053Z,58.50
2022-11-09T09:39:15.621Z,58.50
2022-11-09T09:41:56.886Z,57.90
2022-11-09T09:44:49.214Z,59.90
2022-11-09T09:47:24.270Z,58.50
2022-11-09T09:49:57.895Z,59.50
2022-11-09T09:52:41.457Z,58.40
2022-11-09T09:55:30.877Z,58.60
2022-11-09T09:58:06.553Z,58.50
2022-11-09T10:00:35.675Z,59.40
2022-11-09T10:03:02.330Z,59.80
2022-11-09T10:05:56.959Z,59.00
2022-11-09T10:08:29.661Z,58.50
2022-11-09T10:11:16.049Z,59.10
2022-11-09T10:13:54.118Z,59.10
2022-11-09T10:16:34.114Z,58.70
2022-11-09T10:19:28.625Z,58.10
2022-11-09T10:22:19.121Z,58.60
2022-11-09T10:25:20.891Z,58.60
2022-11-09T10:28:01.047Z,58.10
2022-11-09T10:30:29.650Z,58.70
2022-11-09T10:33:00.462Z,60.30
2022-11-09T10:35:33.974Z,59.70
2022-11-09T10:38:00.689Z,60.00
2022-11-09T10:40:41.039Z,58.10
2022-11-09T10:43:26.543Z,58.80
2022-11-09T10:46:11.797Z,58.90
2022-11-09T10:48:57.610Z,58.70
2022-11-09T10:51:47.925Z,59.30
2022-11-09T10:54:37.626Z,58.70
2022-11-09T10:57:24.693Z,60.00
2022-11-09T11:00:19.107Z,59.20
2022-11-09T11:03:15.633Z,58.80
2022-11-09T11:06:11.485Z,58.10
2022-11-09T11:09:05.929Z,58.60
2022-11-09T11:14:58.739Z,58.00
2022-11-09T11:17:44.278Z,58.00
2022-11-09T11:20:35.345Z,59.20
2022-11-09T11:23:26.213Z,58.60
2022-11-09T11:26:33.738Z,59.80
2022-11-09T11:29:19.296Z,58.90
2022-11-09T11:32:08.739Z,58.50
2022-11-09T11:35:00.406Z,58.50
2022-11-09T11:37:58.805Z,60.00
2022-11-09T11:41:06.604Z,58.60
2022-11-09T11:43:54.672Z,58.50
2022-11-09T11:46:48.829Z,58.40
2022-11-09T11:49:52.607Z,58.40
2022-11-09T11:53:03.514Z,58.40
2022-11-09T11:56:19.455Z,58.40
2022-11-09T11:59:37.038Z,58.40
2022-11-09T12:02:48.303Z,58.40
2022-11-09T12:05:54.983Z,57.80
2022-11-09T12:08:45.165Z,58.50
2022-11-09T12:12:19.302Z,59.70
2022-11-09T12:15:26.768Z,58.50
2022-11-09T12:18:31.504Z,58.50
2022-11-09T12:21:58.640Z,58.60
2022-11-09T12:25:19.725Z,58.60
2022-11-09T12:28:13.615Z,58.10
2022-11-09T12:31:24.739Z,58.80
2022-11-09T12:34:34.635Z,58.60
2022-11-09T12:37:35.393Z,59.40
2022-11-09T12:41:01.953Z,58.60
2022-11-09T12:43:58.148Z,58.60
2022-11-09T12:46:49.791Z,59.30
2022-11-09T12:49:38.183Z,58.50
2022-11-09T12:52:28.010Z,58.70
2022-11-09T12:55:20.432Z,59.00
2022-11-09T12:58:06.118Z,59.00
2022-11-09T13:00:54.619Z,58.80
2022-11-09T13:03:56.026Z,58.00
2022-11-09T13:06:42.552Z,58.60
2022-11-09T13:09:43.629Z,58.80
2022-11-09T13:12:40.004Z,60.40
2022-11-09T13:15:27.777Z,59.20
2022-11-09T13:18:24.424Z,58.70
2022-11-09T13:21:21.813Z,58.60
2022-11-09T13:24:32.233Z,58.70
2022-11-09T13:27:40.699Z,58.50
2022-11-09T13:30:25.947Z,58.50
2022-11-09T13:33:32.322Z,58.90
2022-11-09T13:36:19.504Z,58.50
2022-11-09T13:39:43.715Z,58.50
2022-11-09T13:42:34.241Z,58.50
2022-11-09T13:45:48.986Z,59.70
2022-11-09T13:48:47.561Z,58.40
2022-11-09T13:51:35.802Z,58.30
2022-11-09T13:54:27.078Z,58.30
2022-11-09T13:57:12.609Z,58.30
2022-11-09T13:59:58.348Z,58.50
2022-11-09T14:02:51.598Z,58.30
2022-11-09T14:05:39.314Z,58.20
2022-11-09T14:08:40.043Z,58.20
2022-11-09T14:11:33.091Z,59.50
2022-11-09T14:14:48.922Z,57.50
2022-11-09T14:17:33.957Z,58.10
2022-11-09T14:20:38.034Z,58.20
2022-11-09T14:23:28.645Z,58.10
2022-11-09T14:26:19.361Z,58.90
2022-11-09T14:29:34.130Z,57.40
2022-11-09T14:32:22.380Z,58.00
2022-11-09T14:35:25.800Z,57.90
2022-11-09T14:38:24.025Z,57.90
2022-11-09T14:41:25.533Z,57.80
2022-11-09T14:44:26.304Z,59.40
2022-11-09T14:47:17.326Z,58.10
2022-11-09T14:50:03.302Z,57.40
2022-11-09T14:52:49.118Z,57.80
2022-11-09T14:55:35.500Z,57.10
2022-11-09T14:58:21.923Z,57.60
2022-11-09T15:01:17.004Z,57.60
2022-11-09T15:04:06.618Z,57.50
2022-11-09T15:07:00.039Z,57.50
2022-11-09T15:09:49.853Z,56.90
2022-11-09T15:12:35.745Z,57.60
2022-11-09T15:15:24.208Z,57.50
2022-11-09T15:18:20.882Z,57.30
2022-11-09T15:21:18.204Z,57.20
2022-11-09T15:24:05.941Z,57.50
2022-11-09T15:26:52.685Z,56.40
2022-11-09T15:29:43.516Z,57.40
2022-11-09T15:32:34.682Z,56.90
2022-11-09T15:35:20.596Z,56.80
2022-11-09T15:38:06.279Z,57.20
2022-11-09T15:40:51.923Z,58.10
2022-11-09T15:43:37.985Z,57.00
2022-11-09T15:46:32.183Z,57.10
2022-11-09T15:49:26.302Z,57.00
2022-11-09T15:52:12.473Z,57.00
2022-11-09T15:54:57.989Z,57.00
2022-11-09T15:57:43.869Z,57.20
2022-11-09T16:00:29.112Z,57.20
2022-11-09T16:03:17.217Z,56.40
2022-11-09T16:06:02.210Z,57.20
2022-11-09T16:08:48.524Z,56.50
2022-11-09T16:11:33.905Z,56.40
2022-11-09T16:14:22.128Z,57.20
2022-11-09T16:17:07.573Z,56.40
2022-11-09T16:19:53.647Z,56.40
2022-11-09T16:22:38.835Z,57.00
2022-11-09T16:25:24.338Z,56.50
2022-11-09T16:28:09.547Z,56.50
2022-11-09T16:30:54.810Z,56.50
2022-11-09T16:33:40.809Z,57.30
2022-11-09T16:36:27.507Z,59.10
2022-11-09T16:39:16.868Z,58.20
2022-11-09T16:42:05.689Z,57.50
2022-11-09T16:44:51.003Z,57.20
2022-11-09T16:47:45.857Z,56.60
2022-11-09T16:50:31.287Z,57.10
2022-11-09T16:53:16.475Z,56.50
2022-11-09T16:56:01.911Z,56.50
2022-11-09T16:58:48.402Z,56.50
2022-11-09T17:01:33.871Z,58.90
2022-11-09T17:04:19.437Z,56.50
2022-11-09T17:07:05.217Z,56.50
2022-11-09T17:12:37.444Z,56.50
2022-11-09T17:15:23.153Z,56.50
2022-11-09T17:18:09.842Z,56.60
2022-11-09T17:20:54.933Z,56.50
2022-11-09T17:23:40.541Z,57.40
2022-11-09T17:26:26.167Z,56.50
2022-11-09T17:34:44.226Z,56.50
2022-11-09T17:37:29.800Z,56.50
2022-11-09T17:43:02.637Z,56.50
2022-11-09T17:45:47.767Z,56.50
2022-11-09T17:48:34.537Z,56.50
2022-11-09T17:51:20.378Z,56.50
2022-11-09T17:54:05.533Z,57.30
2022-11-09T17:56:51.758Z,56.50
2022-11-09T18:02:23.342Z,56.50
2022-11-09T18:05:10.838Z,56.50
2022-11-09T18:07:55.897Z,56.50
2022-11-09T18:10:44.262Z,56.50
2022-11-09T18:16:19.424Z,56.50
2022-11-09T18:19:04.892Z,56.50
2022-11-09T18:21:50.301Z,56.50
2022-11-09T18:24:36.437Z,56.40
2022-11-09T18:27:29.935Z,56.50
2022-11-09T18:30:16.701Z,56.40
2022-11-09T18:33:01.902Z,56.40
2022-11-09T18:35:55.344Z,56.40
2022-11-09T18:38:41.280Z,57.20
2022-11-09T18:41:26.569Z,56.40
2022-11-09T18:44:12.108Z,56.50
2022-11-09T18:47:00.773Z,56.40
2022-11-09T18:49:50.433Z,56.40
2022-11-09T18:52:36.922Z,56.40
2022-11-09T18:55:22.340Z,57.30
2022-11-09T18:58:08.433Z,56.50
2022-11-09T19:00:59.693Z,56.60
2022-11-09T19:03:45.236Z,57.20
2022-11-09T19:06:30.875Z,56.50
2022-11-09T19:12:41.719Z,56.40
2022-11-09T19:15:27.380Z,56.40
2022-11-09T19:18:12.671Z,56.40
2022-11-09T19:20:58.410Z,58.70
2022-11-09T19:23:45.891Z,57.70
2022-11-09T19:26:32.081Z,56.40
2022-11-09T19:29:17.386Z,56.40
2022-11-09T19:32:02.663Z,57.30
2022-11-09T19:34:49.882Z,57.30
2022-11-09T19:37:35.422Z,57.00
2022-11-09T19:40:21.974Z,56.40
2022-11-09T19:43:07.587Z,57.00
2022-11-09T19:45:53.112Z,56.40
2022-11-09T19:48:44.814Z,56.30
2022-11-09T19:51:31.693Z,58.80
2022-11-09T19:54:17.084Z,57.00
2022-11-09T19:57:02.113Z,57.20
2022-11-09T19:59:47.318Z,56.30
2022-11-09T20:02:32.379Z,56.30
2022-11-09T20:05:17.561Z,56.30
2022-11-09T20:08:03.514Z,57.20
2022-11-09T20:10:48.806Z,56.30
2022-11-09T20:13:34.891Z,58.00
2022-11-09T20:16:20.398Z,57.00
2022-11-09T20:19:08.935Z,57.30
2022-11-09T20:21:54.176Z,56.30
2022-11-09T20:24:39.689Z,56.20
2022-11-09T20:27:28.083Z,56.30
2022-11-09T20:30:14.981Z,56.30
2022-11-09T20:33:01.551Z,56.30
2022-11-09T20:35:55.130Z,57.10
2022-11-09T20:38:41.746Z,58.10
2022-11-09T20:41:28.277Z,56.30
2022-11-09T20:44:15.509Z,56.90
2022-11-09T20:47:01.184Z,56.90
2022-11-09T20:49:49.591Z,56.30
2022-11-09T20:52:34.705Z,57.20
2022-11-09T20:55:20.993Z,57.10
2022-11-09T20:58:10.001Z,57.70
2022-11-09T21:01:04.185Z,56.60
2022-11-09T21:03:50.999Z,56.30
2022-11-09T21:09:22.538Z,56.30
2022-11-09T21:12:24.616Z,56.30
2022-11-09T21:15:09.966Z,56.90
2022-11-09T21:17:55.311Z,56.90
2022-11-09T21:20:40.999Z,57.10
2022-11-09T21:23:28.218Z,57.20
2022-11-09T21:26:32.060Z,56.30
2022-11-09T21:29:40.071Z,56.20
2022-11-09T21:32:25.790Z,56.90
2022-11-09T21:35:10.998Z,56.20
2022-11-09T21:37:57.584Z,56.20
2022-11-09T21:40:43.007Z,56.20
2022-11-09T21:43:28.166Z,58.30
2022-11-09T21:46:13.684Z,57.00
2022-11-09T21:48:58.942Z,57.30
2022-11-09T21:51:45.981Z,56.20
2022-11-09T21:54:31.597Z,56.80
2022-11-09T21:57:16.750Z,56.20
2022-11-09T22:00:02.010Z,57.10
2022-11-09T22:02:47.499Z,58.10
2022-11-09T22:05:32.633Z,58.20
2022-11-09T22:08:18.037Z,56.80
2022-11-09T22:11:07.859Z,57.00
2022-11-09T22:14:12.123Z,56.30
2022-11-09T22:16:57.812Z,56.90
2022-11-09T22:20:02.085Z,56.30
2022-11-09T22:22:47.467Z,57.50
2022-11-09T22:25:33.120Z,56.30
2022-11-09T22:28:18.568Z,56.30
2022-11-09T22:31:05.758Z,57.10
2022-11-09T22:33:52.139Z,57.00
2022-11-09T22:36:37.333Z,56.90
2022-11-09T22:39:22.904Z,57.10
2022-11-09T22:42:08.923Z,57.20
2022-11-09T22:44:54.502Z,56.60
2022-11-09T22:47:39.765Z,57.20
2022-11-09T22:50:25.091Z,57.20
2022-11-09T22:53:10.509Z,56.30
2022-11-09T22:55:57.375Z,58.50
2022-11-09T22:58:45.019Z,57.70
2022-11-09T23:01:30.230Z,56.40
2022-11-09T23:04:15.517Z,57.30
2022-11-09T23:07:01.121Z,56.40
2022-11-09T23:09:46.647Z,58.60
2022-11-09T23:12:35.697Z,58.60
2022-11-09T23:15:21.460Z,59.30
2022-11-09T23:18:27.653Z,57.10
2022-11-09T23:21:14.095Z,58.00
2022-11-09T23:24:01.903Z,57.10
2022-11-09T23:26:47.066Z,56.50
2022-11-09T23:29:32.466Z,56.50
2022-11-09T23:32:17.927Z,58.60
2022-11-09T23:35:03.559Z,59.00
2022-11-09T23:37:58.042Z,57.30
2022-11-09T23:40:43.390Z,56.50
2022-11-09T23:43:29.244Z,57.70
2022-11-09T23:46:15.044Z,57.10
2022-11-09T23:49:01.359Z,56.40
2022-11-09T23:51:46.741Z,56.40
2022-11-09T23:54:32.220Z,56.40
2022-11-09T23:57:17.686Z,57.40
